x

Aberporth (03502) Weather Station

5:00am - Fri 24th Feb 2017 All times are GMT.

  • Wind
    24mph, 34mph gusts
  • 空気 Temp 41°f
  • Sea Pressure 1015mb
  • Aberporth
  • Aberporth

More Historic Weather Station data

Upgrade to MSW Pro to gain access to the past 30 days of data for over 8000 Wavebouys and Weather Stations around the globe.

Join Pro

Comparision Forecast

View Surf forecast
   
Fri 02/24 5:00am 24 34 mph 1015mb 41f
4:00am 25 34 mph 1014mb 41f
3:00am 25 34 mph 1014mb 41f
2:00am 25 36 mph 1013mb 41f
1:00am 29 37 mph 1013mb 41f
12:00am 28 39 mph 1012mb 41f
Thu 02/23 11:00pm 29 40 mph 1011mb 42f
10:00pm 31 41 mph 1010mb 42f
9:00pm 29 45 mph 1009mb 42f
8:00pm 34 45 mph 1008mb 42f
7:00pm 30 49 mph 1007mb 43f
6:00pm 34 44 mph 1005mb 42f
5:00pm 34 46 mph 1004mb 42f
4:00pm 34 52 mph 1003mb 45f
3:00pm 34 49 mph 1001mb 45f
2:00pm 34 51 mph 1000mb 46f
1:00pm 36 54 mph 999mb 45f
12:00pm 40 60 mph 998mb 45f
Wed 02/22 11:00am 30 40 mph 1009mb 49f
10:00am 30 40 mph 1009mb 49f
9:00am 31 40 mph 1009mb 49f
8:00am 33 44 mph 1009mb 49f
7:00am 33 46 mph 1008mb 49f
6:00am 32 41 mph 1009mb 49f
5:00am 32 45 mph 1009mb 49f
4:00am 33 45 mph 1009mb 49f
3:00am 33 47 mph 1010mb 49f
2:00am 37 49 mph 1010mb 50f
1:00am 38 52 mph 1010mb 50f
12:00am 37 48 mph 1010mb 50f
Tue 02/21 11:00pm 36 52 mph 1011mb 50f
10:00pm 36 48 mph 1011mb 51f
9:00pm 34 46 mph 1011mb 51f
8:00pm 31 41 mph 1011mb 50f
7:00pm 23 39 mph 1012mb 51f
6:00pm 30 47 mph 1012mb 50f
5:00pm 23 39 mph 1013mb 51f
4:00pm 29 44 mph 1013mb 50f
3:00pm 28 39 mph 1014mb 51f
2:00pm 29 38 mph 1015mb 50f
1:00pm 28 39 mph 1016mb 50f
12:00pm 29 39 mph 1016mb 50f
11:00am 24 32 mph 1017mb 50f
10:00am 24 33 mph 1017mb 49f
9:00am 23 32 mph 1016mb 49f
8:00am 23 31 mph 1017mb 49f
7:00am 21 31 mph 1017mb 49f
6:00am 24 33 mph 1017mb 49f
5:00am 25 33 mph 1017mb 49f
4:00am 23 31 mph 1017mb 49f
3:00am 23 33 mph 1018mb 49f
2:00am 24 33 mph 1018mb 49f
1:00am 24 33 mph 1019mb 49f
12:00am 22 30 mph 1019mb 51f
Mon 02/20 11:00pm 22 29 mph 1019mb 50f
10:00pm 19
mph
1020mb 50f
9:00pm 21 30 mph 1019mb 51f
8:00pm 23 33 mph 1019mb 51f
7:00pm 24 37 mph 1020mb 52f
6:00pm 28 36 mph 1019mb 52f
5:00pm 25 36 mph 1019mb 52f
4:00pm 26 37 mph 1019mb 52f
3:00pm 25 36 mph 1019mb 53f
2:00pm 26 39 mph 1019mb 53f
1:00pm 31 38 mph 1020mb 54f
12:00pm 21 34 mph 1020mb 54f
11:00am 23 32 mph 1020mb 55f
8:00am 25 36 mph 1021mb 49f
7:00am 16
mph
1020mb 49f
6:00am 13
mph
1020mb 49f